Time;durP1;ratioP1;P1;durP2;ratioP2;P2;SDS_P1;SDS_P2;PMS_P1;PMS_P2;Temp;Humidity;BMP_temperature;BMP_pressure;BME280_temperature;BME280_humidity;BME280_pressure;Samples;Min_cycle;Max_cycle;Signal;HPM_P1;HPM_P2
2023/09/20 00:00:33;;;;;;;0.00;0.00;;;17.30;92.10;;;;;;4960673;28;20456;-68
2023/09/20 00:02:59;;;;;;;0.05;0.05;;;17.20;92.10;;;;;;4968771;28;20144;-69
2023/09/20 00:05:26;;;;;;;0.00;0.00;;;17.30;92.30;;;;;;4969700;28;20484;-68
2023/09/20 00:07:54;;;;;;;2.13;0.52;;;17.30;92.10;;;;;;4970693;28;20074;-68
2023/09/20 00:10:21;;;;;;;0.65;0.65;;;17.30;92.10;;;;;;4967868;28;20590;-68
2023/09/20 00:12:46;;;;;;;0.00;0.00;;;17.30;91.90;;;;;;4967887;28;20051;-69
2023/09/20 00:15:12;;;;;;;0.20;0.20;;;17.30;91.90;;;;;;4969475;28;20432;-68
2023/09/20 00:17:38;;;;;;;1.45;1.10;;;17.30;91.90;;;;;;4969799;28;20058;-68
2023/09/20 00:20:14;;;;;;;0.00;0.00;;;17.30;91.90;;;;;;4970170;28;20054;-68
2023/09/20 00:22:44;;;;;;;0.00;0.00;;;17.30;91.70;;;;;;4970370;28;20050;-68
2023/09/20 00:25:14;;;;;;;0.00;0.00;;;17.40;91.70;;;;;;4967732;28;20074;-68
2023/09/20 00:27:45;;;;;;;0.00;0.00;;;17.30;91.80;;;;;;4969633;28;20463;-68
2023/09/20 00:30:14;;;;;;;0.00;0.00;;;17.30;91.70;;;;;;4958997;28;20702;-68
2023/09/20 00:32:43;;;;;;;1.40;1.33;;;17.40;91.60;;;;;;4969926;28;20492;-68
2023/09/20 00:35:10;;;;;;;2.45;0.65;;;17.30;91.60;;;;;;4969986;28;20411;-69
2023/09/20 00:37:40;;;;;;;0.00;0.00;;;17.30;91.60;;;;;;4968942;28;20517;-68
2023/09/20 00:40:15;;;;;;;0.55;0.35;;;17.30;91.50;;;;;;4961042;28;20054;-68
2023/09/20 00:42:45;;;;;;;0.00;0.00;;;17.30;91.70;;;;;;4965017;28;20072;-68
2023/09/20 00:45:13;;;;;;;0.35;0.35;;;17.30;91.60;;;;;;4965305;28;20088;-68
2023/09/20 00:47:40;;;;;;;0.30;0.30;;;17.40;91.60;;;;;;4964380;28;20054;-68
2023/09/20 00:50:12;;;;;;;0.15;0.15;;;17.40;91.40;;;;;;4951989;28;20087;-68
2023/09/20 00:52:44;;;;;;;0.00;0.00;;;17.40;91.30;;;;;;4959639;28;20057;-69
2023/09/20 00:55:15;;;;;;;1.45;0.60;;;17.50;91.50;;;;;;4962193;28;20047;-68
2023/09/20 00:57:45;;;;;;;0.00;0.00;;;17.40;91.70;;;;;;4959214;28;20413;-68
2023/09/20 01:00:20;;;;;;;0.20;0.20;;;17.50;91.60;;;;;;4973873;28;20074;-68
2023/09/20 01:02:48;;;;;;;0.10;0.10;;;17.40;91.80;;;;;;4973802;28;20046;-69
2023/09/20 01:05:15;;;;;;;0.10;0.10;;;17.40;92.00;;;;;;4973525;28;20054;-69
2023/09/20 01:07:42;;;;;;;0.00;0.00;;;17.30;92.00;;;;;;4960686;28;20043;-68
2023/09/20 01:10:09;;;;;;;5.07;1.25;;;17.30;92.20;;;;;;4956213;28;20497;-68
2023/09/20 01:12:36;;;;;;;0.05;0.05;;;17.30;92.20;;;;;;4962809;28;20455;-69
2023/09/20 01:15:02;;;;;;;0.00;0.00;;;17.30;92.10;;;;;;4954564;28;20420;-68
2023/09/20 01:17:28;;;;;;;0.00;0.00;;;17.30;92.00;;;;;;4971169;28;20055;-68
2023/09/20 01:19:53;;;;;;;0.00;0.00;;;17.30;92.20;;;;;;4973308;28;20058;-68
2023/09/20 01:22:19;;;;;;;0.10;0.10;;;17.30;92.20;;;;;;4973461;28;20451;-68
2023/09/20 01:24:46;;;;;;;0.00;0.00;;;17.20;92.10;;;;;;4973448;28;20046;-68
2023/09/20 01:27:13;;;;;;;0.00;0.00;;;17.30;92.00;;;;;;4972760;28;20460;-68
2023/09/20 01:29:38;;;;;;;0.00;0.00;;;17.30;91.90;;;;;;4973514;28;20047;-68
2023/09/20 01:32:04;;;;;;;0.00;0.00;;;17.30;91.90;;;;;;4963582;28;20047;-68
2023/09/20 01:34:31;;;;;;;0.55;0.55;;;17.30;91.90;;;;;;4958133;28;20035;-68
2023/09/20 01:36:57;;;;;;;0.00;0.00;;;17.30;92.00;;;;;;4961946;28;20046;-68
2023/09/20 01:39:24;;;;;;;0.10;0.10;;;17.30;91.80;;;;;;4971437;28;20842;-68
2023/09/20 01:41:50;;;;;;;0.00;0.00;;;17.30;91.90;;;;;;4957069;28;20047;-69
2023/09/20 01:44:16;;;;;;;0.03;0.03;;;17.30;91.90;;;;;;4957220;28;20047;-69
2023/09/20 01:46:41;;;;;;;0.55;0.55;;;17.30;92.00;;;;;;4957875;28;20403;-68
2023/09/20 01:49:08;;;;;;;0.00;0.00;;;17.30;92.00;;;;;;4966887;28;20082;-69
2023/09/20 01:51:34;;;;;;;0.00;0.00;;;17.30;92.00;;;;;;4956219;28;20121;-69
2023/09/20 01:53:59;;;;;;;0.08;0.08;;;17.40;91.80;;;;;;4961499;28;20047;-68
2023/09/20 01:56:28;;;;;;;2.65;1.00;;;17.30;91.90;;;;;;4967858;28;20712;-69
2023/09/20 01:58:53;;;;;;;0.03;0.03;;;17.30;91.90;;;;;;4972085;28;20470;-68
2023/09/20 02:01:19;;;;;;;0.00;0.00;;;17.40;91.80;;;;;;4972400;28;20130;-69
2023/09/20 02:03:44;;;;;;;0.22;0.22;;;17.40;91.70;;;;;;4971805;28;20086;-68
2023/09/20 02:06:10;;;;;;;0.00;0.00;;;17.40;91.60;;;;;;4972877;28;20113;-68
2023/09/20 02:08:36;;;;;;;0.03;0.03;;;17.40;91.60;;;;;;4972244;28;20101;-69
2023/09/20 02:11:03;;;;;;;0.00;0.00;;;17.50;91.50;;;;;;4970443;28;20058;-68
2023/09/20 02:13:28;;;;;;;0.00;0.00;;;17.40;91.50;;;;;;4973075;28;20046;-68
2023/09/20 02:15:55;;;;;;;0.00;0.00;;;17.40;91.50;;;;;;4972237;28;20061;-68
2023/09/20 02:18:22;;;;;;;0.22;0.22;;;17.40;91.50;;;;;;4971711;28;20051;-68
2023/09/20 02:20:47;;;;;;;0.00;0.00;;;17.50;91.50;;;;;;4971968;28;20606;-68
2023/09/20 02:23:14;;;;;;;0.00;0.00;;;17.50;91.60;;;;;;4972226;28;20130;-69
2023/09/20 02:25:40;;;;;;;0.00;0.00;;;17.50;91.60;;;;;;4971883;28;20054;-69
2023/09/20 02:28:07;;;;;;;0.00;0.00;;;17.50;91.50;;;;;;4972275;28;20050;-69
2023/09/20 02:30:36;;;;;;;0.00;0.00;;;17.50;91.60;;;;;;4972198;28;20047;-69
2023/09/20 02:33:06;;;;;;;0.00;0.00;;;17.50;91.50;;;;;;4972217;28;20459;-69
2023/09/20 02:35:33;;;;;;;0.98;0.65;;;17.50;91.50;;;;;;4971429;28;20073;-69
2023/09/20 02:37:59;;;;;;;0.00;0.00;;;17.50;91.30;;;;;;4972192;28;20514;-70
2023/09/20 02:40:28;;;;;;;0.00;0.00;;;17.50;91.30;;;;;;4972010;28;20602;-69
2023/09/20 02:43:04;;;;;;;0.00;0.00;;;17.60;91.20;;;;;;4971937;28;20508;-69
2023/09/20 02:45:30;;;;;;;0.00;0.00;;;17.50;91.10;;;;;;4971728;28;20621;-69
2023/09/20 02:47:57;;;;;;;0.00;0.00;;;17.60;90.90;;;;;;4972359;28;20046;-69
2023/09/20 02:50:23;;;;;;;0.00;0.00;;;17.60;90.40;;;;;;4971141;28;20098;-69
2023/09/20 02:52:51;;;;;;;0.00;0.00;;;17.60;90.40;;;;;;4972123;28;20047;-70
2023/09/20 02:55:20;;;;;;;0.00;0.00;;;17.70;90.30;;;;;;4971011;28;20105;-69
2023/09/20 02:57:52;;;;;;;0.28;0.28;;;17.70;90.20;;;;;;4969275;28;20057;-69
2023/09/20 03:00:22;;;;;;;0.00;0.00;;;17.70;90.30;;;;;;4971427;28;20496;-70
2023/09/20 03:02:49;;;;;;;0.30;0.30;;;17.60;90.40;;;;;;4971839;28;20047;-69
2023/09/20 03:05:31;;;;;;;0.00;0.00;;;17.60;90.20;;;;;;4971431;28;20121;-69
2023/09/20 03:07:58;;;;;;;0.00;0.00;;;17.60;90.10;;;;;;4963251;28;20496;-69
2023/09/20 03:10:25;;;;;;;0.00;0.00;;;17.60;90.20;;;;;;4970326;28;20542;-70
2023/09/20 03:12:54;;;;;;;4.07;1.65;;;17.60;90.20;;;;;;4957090;28;20097;-69
2023/09/20 03:15:23;;;;;;;0.00;0.00;;;17.60;90.20;;;;;;4971202;28;20120;-69
2023/09/20 03:17:53;;;;;;;0.00;0.00;;;17.60;90.20;;;;;;4971070;28;20055;-69
2023/09/20 03:20:23;;;;;;;0.17;0.17;;;17.60;90.30;;;;;;4970092;28;20515;-69
2023/09/20 03:22:53;;;;;;;0.00;0.00;;;17.60;90.30;;;;;;4971071;28;20042;-69
2023/09/20 03:25:20;;;;;;;0.00;0.00;;;17.50;90.30;;;;;;4954239;28;20562;-69
2023/09/20 03:27:46;;;;;;;0.10;0.10;;;17.60;90.40;;;;;;4970087;28;20117;-69
2023/09/20 03:30:13;;;;;;;0.10;0.10;;;17.60;90.20;;;;;;4970496;28;20594;-69
2023/09/20 03:32:44;;;;;;;0.22;0.22;;;17.50;90.20;;;;;;4971031;28;20047;-69
2023/09/20 03:35:12;;;;;;;0.00;0.00;;;17.60;90.30;;;;;;4971329;28;20050;-69
2023/09/20 03:37:41;;;;;;;0.10;0.10;;;17.50;90.30;;;;;;4970812;28;20571;-69
2023/09/20 03:40:10;;;;;;;0.05;0.05;;;17.50;90.20;;;;;;4970289;28;20397;-70
2023/09/20 03:42:40;;;;;;;0.00;0.00;;;17.50;90.20;;;;;;4970719;28;20547;-70
2023/09/20 03:45:09;;;;;;;0.00;0.00;;;17.50;90.30;;;;;;4970893;28;20061;-69
2023/09/20 03:47:35;;;;;;;0.00;0.00;;;17.50;90.40;;;;;;4957430;28;20098;-69
2023/09/20 03:50:01;;;;;;;0.00;0.00;;;17.50;90.20;;;;;;4966636;28;20050;-69
2023/09/20 03:52:27;;;;;;;0.00;0.00;;;17.60;90.10;;;;;;4970816;28;20050;-70
2023/09/20 03:54:53;;;;;;;0.10;0.10;;;17.50;90.10;;;;;;4970623;28;20046;-69
2023/09/20 03:57:24;;;;;;;0.43;0.43;;;17.50;90.00;;;;;;4970342;28;20050;-69
2023/09/20 03:59:52;;;;;;;0.17;0.17;;;17.50;90.00;;;;;;4970498;28;20051;-69
2023/09/20 04:02:18;;;;;;;0.22;0.22;;;17.50;89.90;;;;;;4968948;28;20112;-70
2023/09/20 04:04:44;;;;;;;0.00;0.00;;;17.40;89.90;;;;;;4970584;28;20054;-69
2023/09/20 04:07:09;;;;;;;2.38;2.17;;;17.40;89.70;;;;;;4970338;28;20049;-69
2023/09/20 04:09:35;;;;;;;0.00;0.00;;;17.40;89.80;;;;;;4970428;28;20047;-69
2023/09/20 04:12:03;;;;;;;0.00;0.00;;;17.40;89.80;;;;;;4969694;28;20047;-69
2023/09/20 04:14:28;;;;;;;0.00;0.00;;;17.30;89.50;;;;;;4970548;28;20050;-70
2023/09/20 04:16:54;;;;;;;0.00;0.00;;;17.40;89.60;;;;;;4969189;28;20050;-69
2023/09/20 04:19:24;;;;;;;0.00;0.00;;;17.40;89.50;;;;;;4969724;28;20061;-69
2023/09/20 04:21:50;;;;;;;0.03;0.03;;;17.30;89.20;;;;;;4970064;28;20043;-69
2023/09/20 04:24:17;;;;;;;1.67;1.17;;;17.30;89.10;;;;;;4970048;28;20042;-69
2023/09/20 04:26:42;;;;;;;0.05;0.05;;;17.50;89.30;;;;;;4969716;28;20042;-69
2023/09/20 04:29:08;;;;;;;0.00;0.00;;;17.30;88.80;;;;;;4969705;28;20454;-70
2023/09/20 04:31:33;;;;;;;0.00;0.00;;;17.40;88.80;;;;;;4969737;28;20039;-70
2023/09/20 04:34:02;;;;;;;0.05;0.05;;;17.30;88.70;;;;;;4968940;28;20046;-70
2023/09/20 04:36:28;;;;;;;2.47;0.98;;;17.30;88.70;;;;;;4969395;28;20113;-70
2023/09/20 04:38:57;;;;;;;0.10;0.10;;;17.40;88.30;;;;;;4969764;28;20526;-70
2023/09/20 04:41:23;;;;;;;0.05;0.05;;;17.40;88.30;;;;;;4969709;28;20495;-69
2023/09/20 04:43:48;;;;;;;0.10;0.10;;;17.40;88.40;;;;;;4969858;28;20039;-69
2023/09/20 04:46:14;;;;;;;0.05;0.05;;;17.40;88.30;;;;;;4969064;28;20086;-69
2023/09/20 04:48:40;;;;;;;0.32;0.32;;;17.40;88.40;;;;;;4969728;28;20122;-69
2023/09/20 04:51:06;;;;;;;0.32;0.32;;;17.40;88.10;;;;;;4970294;28;20496;-70
2023/09/20 04:53:35;;;;;;;0.00;0.00;;;17.40;88.10;;;;;;4970066;28;20097;-69
2023/09/20 04:56:02;;;;;;;0.20;0.20;;;17.40;88.20;;;;;;4968869;28;20074;-70
2023/09/20 04:58:27;;;;;;;0.00;0.00;;;17.40;88.20;;;;;;4964131;28;20039;-69
2023/09/20 05:00:54;;;;;;;0.52;0.47;;;17.40;88.20;;;;;;4967399;28;20042;-69
2023/09/20 05:03:20;;;;;;;0.03;0.03;;;17.40;88.10;;;;;;4966429;28;20495;-69
2023/09/20 05:05:47;;;;;;;0.00;0.00;;;17.50;88.20;;;;;;4952259;28;20511;-69
2023/09/20 05:08:15;;;;;;;0.00;0.00;;;17.50;88.00;;;;;;4969274;28;20117;-69
2023/09/20 05:10:41;;;;;;;0.47;0.47;;;17.40;87.90;;;;;;4965162;28;20428;-69
2023/09/20 05:13:08;;;;;;;0.00;0.00;;;17.50;88.00;;;;;;4962002;28;20468;-69
2023/09/20 05:15:34;;;;;;;0.05;0.05;;;17.40;88.00;;;;;;4965364;28;20050;-68
2023/09/20 05:17:59;;;;;;;0.60;0.60;;;17.40;88.00;;;;;;4963074;28;20058;-69
2023/09/20 05:20:27;;;;;;;0.00;0.00;;;17.30;88.00;;;;;;4964764;28;20053;-68
2023/09/20 05:22:53;;;;;;;4.30;0.75;;;17.40;87.90;;;;;;4966001;28;20066;-67
2023/09/20 05:25:19;;;;;;;0.00;0.00;;;17.40;87.90;;;;;;4952778;28;20032;-67
2023/09/20 05:27:45;;;;;;;0.85;0.35;;;17.50;87.90;;;;;;4957607;28;20083;-66
2023/09/20 05:30:11;;;;;;;15.70;1.35;;;17.40;87.80;;;;;;4961364;28;20074;-66
2023/09/20 05:32:36;;;;;;;0.00;0.00;;;17.40;87.80;;;;;;4962479;28;20094;-67
2023/09/20 05:35:04;;;;;;;0.10;0.10;;;17.50;87.80;;;;;;4957717;28;20603;-66
2023/09/20 05:37:30;;;;;;;0.00;0.00;;;17.40;87.70;;;;;;4963762;28;20498;-66
2023/09/20 05:39:55;;;;;;;10.25;2.47;;;17.40;87.80;;;;;;4956666;28;20054;-68
2023/09/20 05:42:22;;;;;;;0.00;0.00;;;17.50;87.80;;;;;;4966269;28;20833;-67
2023/09/20 05:44:48;;;;;;;0.25;0.25;;;17.40;87.80;;;;;;4969690;28;20078;-66
2023/09/20 05:47:15;;;;;;;0.00;0.00;;;17.40;88.00;;;;;;4961174;28;20039;-66
2023/09/20 05:49:40;;;;;;;0.00;0.00;;;17.40;88.10;;;;;;4968357;28;20047;-68
2023/09/20 05:52:06;;;;;;;0.00;0.00;;;17.40;88.10;;;;;;4962415;28;20047;-67
2023/09/20 05:54:32;;;;;;;0.47;0.47;;;17.40;88.00;;;;;;4958775;28;20049;-67
2023/09/20 05:56:59;;;;;;;0.00;0.00;;;17.40;87.90;;;;;;4960202;28;20039;-68
2023/09/20 05:59:26;;;;;;;0.10;0.10;;;17.40;88.00;;;;;;4969517;28;20081;-67
2023/09/20 06:01:52;;;;;;;1.08;0.82;;;17.30;88.00;;;;;;4963019;28;20082;-67
2023/09/20 06:04:19;;;;;;;1.67;1.27;;;17.40;88.00;;;;;;4971391;28;20085;-69
2023/09/20 06:06:45;;;;;;;0.00;0.00;;;17.30;88.00;;;;;;4954279;28;20070;-69
2023/09/20 06:09:10;;;;;;;0.30;0.30;;;17.30;88.00;;;;;;4967726;28;20043;-68
2023/09/20 06:11:36;;;;;;;0.00;0.00;;;17.40;87.90;;;;;;4968747;28;20471;-68
2023/09/20 06:14:04;;;;;;;0.00;0.00;;;17.30;87.80;;;;;;4960737;28;20181;-69
2023/09/20 06:16:30;;;;;;;0.00;0.00;;;17.30;87.90;;;;;;4971606;28;20504;-69
2023/09/20 06:18:56;;;;;;;0.00;0.00;;;17.40;87.70;;;;;;4969315;28;20082;-70
2023/09/20 06:21:23;;;;;;;0.05;0.05;;;17.30;87.70;;;;;;4971842;28;20086;-69
2023/09/20 06:23:49;;;;;;;0.00;0.00;;;17.30;87.70;;;;;;4971571;28;20061;-69
2023/09/20 06:26:14;;;;;;;0.00;0.00;;;17.30;87.50;;;;;;4972642;28;20051;-69
2023/09/20 06:28:43;;;;;;;0.43;0.43;;;17.40;87.70;;;;;;4972548;28;20038;-69
2023/09/20 06:31:12;;;;;;;0.10;0.10;;;17.40;87.70;;;;;;4972692;28;20180;-70
2023/09/20 06:33:44;;;;;;;0.10;0.10;;;17.40;87.80;;;;;;4973183;28;20047;-70
2023/09/20 06:36:17;;;;;;;0.00;0.00;;;17.30;87.80;;;;;;4973534;28;20170;-69
2023/09/20 06:38:43;;;;;;;0.00;0.00;;;17.30;87.80;;;;;;4972917;28;20137;-70
2023/09/20 06:41:09;;;;;;;0.10;0.10;;;17.30;87.90;;;;;;4973369;28;20106;-69
2023/09/20 06:43:36;;;;;;;0.00;0.00;;;17.20;87.90;;;;;;4973345;28;20047;-69
2023/09/20 06:46:03;;;;;;;0.20;0.20;;;17.20;87.80;;;;;;4973096;28;20046;-69
2023/09/20 06:48:29;;;;;;;0.03;0.03;;;17.20;87.90;;;;;;4973406;28;20057;-70
2023/09/20 06:50:55;;;;;;;0.00;0.00;;;17.20;88.00;;;;;;4971364;28;20042;-67
2023/09/20 06:53:23;;;;;;;0.00;0.00;;;17.30;88.00;;;;;;4958680;28;20098;-69
2023/09/20 06:55:49;;;;;;;0.05;0.05;;;17.20;87.90;;;;;;4973018;28;20082;-69
2023/09/20 06:58:15;;;;;;;0.10;0.10;;;17.10;87.90;;;;;;4972131;28;20074;-69
2023/09/20 07:00:41;;;;;;;0.00;0.00;;;17.20;88.00;;;;;;4971821;28;20047;-68
2023/09/20 07:03:08;;;;;;;0.20;0.20;;;17.20;88.00;;;;;;4971334;28;20050;-66
2023/09/20 07:05:34;;;;;;;0.00;0.00;;;17.10;88.10;;;;;;4971994;28;20043;-66
2023/09/20 07:08:00;;;;;;;0.00;0.00;;;17.10;88.10;;;;;;4972637;28;20097;-67
2023/09/20 07:10:28;;;;;;;0.10;0.10;;;17.20;88.20;;;;;;4970958;28;20051;-67
2023/09/20 07:12:54;;;;;;;0.08;0.08;;;17.30;88.10;;;;;;4972105;28;20045;-72
2023/09/20 07:15:20;;;;;;;0.00;0.00;;;17.40;87.80;;;;;;4964255;28;20044;-70
2023/09/20 07:17:58;;;;;;;0.00;0.00;;;17.30;87.70;;;;;;4937666;28;20078;-70
2023/09/20 07:20:28;;;;;;;0.00;0.00;;;17.40;87.70;;;;;;4972168;28;20046;-70
2023/09/20 07:22:54;;;;;;;0.15;0.15;;;17.50;87.40;;;;;;4963516;28;20057;-69
2023/09/20 07:25:21;;;;;;;0.00;0.00;;;17.50;87.50;;;;;;4972137;28;20046;-69
2023/09/20 07:27:48;;;;;;;0.00;0.00;;;17.40;87.30;;;;;;4967278;28;20054;-69
2023/09/20 07:30:21;;;;;;;0.25;0.25;;;17.50;87.40;;;;;;4954610;28;20053;-69
2023/09/20 07:32:48;;;;;;;0.00;0.00;;;17.40;87.30;;;;;;4971667;28;20048;-70
2023/09/20 07:36:00;;;;;;;0.15;0.15;;;17.40;87.30;;;;;;4972159;28;20078;-70
2023/09/20 07:38:02;;;;;;;0.00;0.00;;;17.50;87.40;;;;;;4956440;28;20053;-70
2023/09/20 07:40:29;;;;;;;1.85;0.88;;;17.50;87.50;;;;;;4971638;28;20056;-70
2023/09/20 07:43:06;;;;;;;0.00;0.00;;;17.60;87.30;;;;;;4971823;28;20161;-69
2023/09/20 07:45:38;;;;;;;0.00;0.00;;;17.60;87.00;;;;;;4972042;28;20070;-67
2023/09/20 07:48:16;;;;;;;0.10;0.10;;;17.60;87.10;;;;;;4968610;28;20050;-67
2023/09/20 07:50:44;;;;;;;0.55;0.55;;;17.60;87.10;;;;;;4964223;28;20447;-67
2023/09/20 07:53:11;;;;;;;3.33;1.20;;;17.70;86.90;;;;;;4970558;28;20407;-68
2023/09/20 07:55:44;;;;;;;0.00;0.00;;;17.80;86.70;;;;;;4970937;28;20518;-67
2023/09/20 07:58:10;;;;;;;0.00;0.00;;;17.80;86.50;;;;;;4971170;28;20043;-67
2023/09/20 08:00:41;;;;;;;0.22;0.22;;;17.80;86.50;;;;;;4953781;28;20055;-67
2023/09/20 08:03:06;;;;;;;0.00;0.00;;;17.80;86.30;;;;;;4951292;28;20043;-67
2023/09/20 08:05:33;;;;;;;0.00;0.00;;;17.80;86.30;;;;;;4967869;28;20043;-67
2023/09/20 08:07:59;;;;;;;1.70;1.60;;;17.80;86.20;;;;;;4955797;28;20085;-67
2023/09/20 08:10:27;;;;;;;0.00;0.00;;;17.80;85.80;;;;;;4955248;28;20062;-67
2023/09/20 08:12:53;;;;;;;0.00;0.00;;;17.70;85.40;;;;;;4962965;28;20130;-67
2023/09/20 08:15:20;;;;;;;0.00;0.00;;;17.80;86.00;;;;;;4968969;28;20039;-67
2023/09/20 08:20:34;;;;;;;0.00;0.00;;;17.90;85.90;;;;;;4965578;28;20558;-68
2023/09/20 09:01:37;;;;;;;0.00;0.00;;;17.80;85.60;;;;;;4968608;28;20043;-68
2023/09/20 09:04:05;;;;;;;0.00;0.00;;;17.80;85.60;;;;;;4969400;28;20105;-68
2023/09/20 09:06:31;;;;;;;0.00;0.00;;;17.90;85.70;;;;;;4968308;28;20047;-66
2023/09/20 09:08:57;;;;;;;0.00;0.00;;;17.90;85.50;;;;;;4969723;28;20392;-69
2023/09/20 09:11:24;;;;;;;0.00;0.00;;;17.90;85.40;;;;;;4969259;28;20035;-68
2023/09/20 09:13:51;;;;;;;0.00;0.00;;;18.00;85.30;;;;;;4968926;28;20065;-68
2023/09/20 09:16:19;;;;;;;0.10;0.10;;;18.00;85.20;;;;;;4968719;28;20423;-69
2023/09/20 09:18:44;;;;;;;0.00;0.00;;;17.90;85.10;;;;;;4969099;28;20059;-69
2023/09/20 09:21:14;;;;;;;0.00;0.00;;;18.00;85.10;;;;;;4972380;28;20046;-69
2023/09/20 09:23:45;;;;;;;0.10;0.10;;;18.00;85.30;;;;;;4954659;28;20074;-68
2023/09/20 09:26:12;;;;;;;0.73;0.17;;;18.10;85.00;;;;;;4971562;28;20039;-69
2023/09/20 09:28:39;;;;;;;0.30;0.30;;;18.10;84.80;;;;;;4969843;28;20576;-69
2023/09/20 09:31:06;;;;;;;0.00;0.00;;;18.10;84.80;;;;;;4970805;28;20031;-69
2023/09/20 09:33:32;;;;;;;0.00;0.00;;;18.20;84.90;;;;;;4972623;28;20551;-69
2023/09/20 09:35:57;;;;;;;0.00;0.00;;;18.20;84.70;;;;;;4973093;28;20141;-69
2023/09/20 09:38:23;;;;;;;0.03;0.03;;;18.30;84.70;;;;;;4960358;28;20046;-69
2023/09/20 09:40:56;;;;;;;0.00;0.00;;;18.30;84.70;;;;;;4972859;28;20483;-68
2023/09/20 09:43:23;;;;;;;0.17;0.17;;;18.40;84.40;;;;;;4972337;28;20042;-68
2023/09/20 09:45:53;;;;;;;0.00;0.00;;;18.40;84.10;;;;;;4954545;28;20499;-69
2023/09/20 09:48:20;;;;;;;0.03;0.03;;;18.30;83.90;;;;;;4972109;28;20074;-69
2023/09/20 09:50:46;;;;;;;0.20;0.20;;;18.30;84.10;;;;;;4971152;28;20054;-68
2023/09/20 09:53:20;;;;;;;0.00;0.00;;;18.30;84.00;;;;;;4962277;28;20046;-69
2023/09/20 09:55:48;;;;;;;0.65;0.65;;;18.40;83.90;;;;;;4966470;28;20711;-69
2023/09/20 09:58:13;;;;;;;0.00;0.00;;;18.40;83.80;;;;;;4963023;28;20058;-69
2023/09/20 10:00:45;;;;;;;0.10;0.10;;;18.30;84.10;;;;;;4965272;28;20038;-68
2023/09/20 10:03:15;;;;;;;;;;;18.30;84.20;;;;;;4960618;28;20055;-68
2023/09/20 10:05:43;;;;;;;0.40;0.40;;;18.30;84.20;;;;;;4972201;28;19926;-68
2023/09/20 10:08:11;;;;;;;0.00;0.00;;;18.30;84.40;;;;;;4963919;28;20065;-68
2023/09/20 10:10:37;;;;;;;0.17;0.17;;;18.30;84.20;;;;;;4965006;28;20073;-68
2023/09/20 10:13:03;;;;;;;0.00;0.00;;;18.30;83.50;;;;;;4966276;28;20098;-69
2023/09/20 10:15:32;;;;;;;0.00;0.00;;;18.40;83.80;;;;;;4953911;28;20051;-68
2023/09/20 10:17:59;;;;;;;0.00;0.00;;;18.30;84.10;;;;;;4967947;28;20047;-68
2023/09/20 10:21:04;;;;;;;0.00;0.00;;;18.30;83.50;;;;;;4968986;28;20092;-68
2023/09/20 10:23:35;;;;;;;0.00;0.00;;;18.30;83.80;;;;;;4970450;28;20130;-67
2023/09/20 10:26:00;;;;;;;0.00;0.00;;;18.30;83.80;;;;;;4967995;28;20042;-68
2023/09/20 10:28:34;;;;;;;0.00;0.00;;;18.20;83.90;;;;;;4967723;28;20057;-68
2023/09/20 10:31:01;;;;;;;0.00;0.00;;;18.20;84.00;;;;;;4965602;28;20139;-69
2023/09/20 10:33:51;;;;;;;0.08;0.08;;;18.20;84.10;;;;;;4969365;28;20053;-68
2023/09/20 10:36:30;;;;;;;0.00;0.00;;;18.10;83.90;;;;;;4970937;28;20473;-68
2023/09/20 10:39:19;;;;;;;0.00;0.00;;;18.10;84.10;;;;;;4968121;28;20059;-67
2023/09/20 10:41:47;;;;;;;0.00;0.00;;;18.20;84.20;;;;;;4958685;28;20070;-67
2023/09/20 10:44:29;;;;;;;0.00;0.00;;;18.20;84.10;;;;;;4970941;28;20053;-67
2023/09/20 10:46:58;;;;;;;0.20;0.20;;;18.10;84.40;;;;;;4970877;28;20057;-67
2023/09/20 10:49:47;;;;;;;0.00;0.00;;;18.10;84.30;;;;;;4970313;28;20134;-67
2023/09/20 10:52:37;;;;;;;0.00;0.00;;;18.20;84.10;;;;;;4970460;28;20385;-67
2023/09/20 10:55:14;;;;;;;0.00;0.00;;;18.30;84.10;;;;;;4969953;28;20074;-67
2023/09/20 10:57:51;;;;;;;0.00;0.00;;;18.20;84.40;;;;;;4970330;28;20047;-67
2023/09/20 11:00:25;;;;;;;0.00;0.00;;;18.10;84.40;;;;;;4970579;28;20074;-67
2023/09/20 11:02:52;;;;;;;0.05;0.05;;;18.20;84.40;;;;;;4968554;28;20121;-67
2023/09/20 11:05:18;;;;;;;0.00;0.00;;;18.30;84.40;;;;;;4969912;28;20043;-67
2023/09/20 11:07:46;;;;;;;0.28;0.28;;;18.30;84.00;;;;;;4974879;28;20408;-67
2023/09/20 11:10:13;;;;;;;0.00;0.00;;;18.30;84.10;;;;;;4969732;28;20723;-67
2023/09/20 11:12:43;;;;;;;0.00;0.00;;;18.30;84.20;;;;;;4969940;28;20729;-67
2023/09/20 11:15:10;;;;;;;0.00;0.00;;;18.30;84.20;;;;;;4975995;28;20100;-68
2023/09/20 11:17:36;;;;;;;0.00;0.00;;;18.40;84.20;;;;;;4968075;28;20085;-67
2023/09/20 11:20:04;;;;;;;0.00;0.00;;;18.30;83.40;;;;;;4958904;28;20051;-67
2023/09/20 11:22:31;;;;;;;0.00;0.00;;;18.40;83.70;;;;;;4962146;28;20047;-67
2023/09/20 11:24:57;;;;;;;0.10;0.10;;;18.30;83.70;;;;;;4962743;28;20074;-67
2023/09/20 11:27:24;;;;;;;0.00;0.00;;;18.40;83.20;;;;;;4959705;28;20038;-67
2023/09/20 11:29:49;;;;;;;1.50;1.00;;;18.40;83.70;;;;;;4960663;28;20061;-68
2023/09/20 11:32:17;;;;;;;0.35;0.35;;;18.40;83.30;;;;;;4962558;28;20046;-67
2023/09/20 11:34:45;;;;;;;0.25;0.25;;;18.50;83.40;;;;;;4955796;28;21613;-68
2023/09/20 11:37:13;;;;;;;0.00;0.00;;;18.50;83.30;;;;;;4963420;28;20095;-68
2023/09/20 11:39:42;;;;;;;0.00;0.00;;;18.50;83.50;;;;;;4957219;28;20050;-64
2023/09/20 11:42:07;;;;;;;0.10;0.10;;;18.60;83.50;;;;;;4958088;28;20050;-67
2023/09/20 11:44:35;;;;;;;0.00;0.00;;;18.60;83.10;;;;;;4961403;28;20051;-66
2023/09/20 11:47:01;;;;;;;2.85;1.75;;;18.70;83.30;;;;;;4959971;28;20038;-67
2023/09/20 11:49:27;;;;;;;0.40;0.40;;;18.60;83.20;;;;;;4956685;28;20071;-66
2023/09/20 11:51:57;;;;;;;0.45;0.45;;;18.70;83.00;;;;;;4961501;28;20053;-66
2023/09/20 11:54:31;;;;;;;0.00;0.00;;;18.60;82.80;;;;;;4953071;28;20402;-70
2023/09/20 11:56:59;;;;;;;0.05;0.05;;;18.70;82.80;;;;;;4951442;29;20047;-70
2023/09/20 11:59:25;;;;;;;0.28;0.28;;;18.80;82.00;;;;;;4950351;29;20062;-70
2023/09/20 12:01:51;;;;;;;0.00;0.00;;;18.80;82.70;;;;;;4951231;29;20047;-70
2023/09/20 12:04:17;;;;;;;0.08;0.08;;;18.70;82.40;;;;;;4951205;29;20043;-71
2023/09/20 12:06:43;;;;;;;0.00;0.00;;;18.70;82.20;;;;;;4949794;28;20051;-70
2023/09/20 12:09:09;;;;;;;0.10;0.10;;;18.70;82.50;;;;;;4968955;28;20096;-72
2023/09/20 12:11:35;;;;;;;0.00;0.00;;;18.70;82.90;;;;;;4963482;28;20129;-69
2023/09/20 12:14:02;;;;;;;0.00;0.00;;;18.70;82.90;;;;;;4931569;28;20050;-73
2023/09/20 12:16:27;;;;;;;0.00;0.00;;;18.70;82.80;;;;;;4917248;28;20097;-72
2023/09/20 12:18:58;;;;;;;0.00;0.00;;;18.80;82.80;;;;;;4953016;28;20071;-70
2023/09/20 12:21:25;;;;;;;0.00;0.00;;;18.70;82.50;;;;;;4968274;28;20121;-72
2023/09/20 12:23:51;;;;;;;0.08;0.08;;;18.80;82.50;;;;;;4960896;28;20047;-67
2023/09/20 12:26:17;;;;;;;0.00;0.00;;;18.70;82.20;;;;;;4958412;28;20094;-67
2023/09/20 12:28:44;;;;;;;0.00;0.00;;;18.70;82.60;;;;;;4958237;28;20040;-71
2023/09/20 12:31:09;;;;;;;0.10;0.10;;;18.80;82.80;;;;;;4968589;28;20453;-70
2023/09/20 12:33:35;;;;;;;0.00;0.00;;;18.80;82.60;;;;;;4965319;28;20081;-70
2023/09/20 12:36:01;;;;;;;0.00;0.00;;;18.80;82.40;;;;;;4969508;28;20373;-70
2023/09/20 12:38:29;;;;;;;0.00;0.00;;;18.80;82.50;;;;;;4969796;28;20145;-68
2023/09/20 12:40:56;;;;;;;0.00;0.00;;;18.80;82.50;;;;;;4969882;28;20090;-71
2023/09/20 12:43:22;;;;;;;1.17;0.25;;;18.70;82.30;;;;;;4971087;28;20039;-69
2023/09/20 12:45:47;;;;;;;0.00;0.00;;;18.80;82.60;;;;;;4969465;28;20046;-69
2023/09/20 12:48:14;;;;;;;0.00;0.00;;;18.90;82.60;;;;;;4970400;28;20073;-68
2023/09/20 12:50:41;;;;;;;0.00;0.00;;;18.90;82.40;;;;;;4969970;28;20489;-66
2023/09/20 12:53:08;;;;;;;0.10;0.10;;;18.90;82.30;;;;;;4969921;28;20055;-67
2023/09/20 12:55:38;;;;;;;0.10;0.10;;;19.00;82.60;;;;;;4973560;28;20078;-70
2023/09/20 12:58:06;;;;;;;0.10;0.10;;;19.00;82.40;;;;;;4973561;28;20057;-74
2023/09/20 13:00:36;;;;;;;0.00;0.00;;;19.00;82.20;;;;;;4955856;28;20078;-71
2023/09/20 13:03:08;;;;;;;0.00;0.00;;;19.10;82.40;;;;;;4973875;28;20046;-71
2023/09/20 13:05:36;;;;;;;0.15;0.15;;;19.20;82.20;;;;;;4973060;28;20049;-73
2023/09/20 13:08:02;;;;;;;0.00;0.00;;;19.40;82.20;;;;;;4974107;28;20105;-71
2023/09/20 13:10:28;;;;;;;0.13;0.13;;;19.50;81.60;;;;;;4970303;28;20035;-70
2023/09/20 13:12:54;;;;;;;0.05;0.05;;;19.50;81.60;;;;;;4955446;28;20051;-70
2023/09/20 13:15:20;;;;;;;0.00;0.00;;;19.60;81.50;;;;;;4968252;28;20094;-68
2023/09/20 13:17:54;;;;;;;0.00;0.00;;;19.70;81.10;;;;;;4937108;29;20109;-68
2023/09/20 13:20:22;;;;;;;1.38;0.73;;;19.80;81.00;;;;;;4965383;28;20046;-69
2023/09/20 13:22:52;;;;;;;0.00;0.00;;;19.80;80.50;;;;;;4971850;28;20046;-70
2023/09/20 13:25:22;;;;;;;0.00;0.00;;;19.80;80.70;;;;;;4973255;28;20047;-70
2023/09/20 13:27:49;;;;;;;0.13;0.13;;;19.90;80.30;;;;;;4973495;28;20043;-70
2023/09/20 13:30:17;;;;;;;0.00;0.00;;;20.00;80.10;;;;;;4964696;28;20826;-70
2023/09/20 13:32:43;;;;;;;0.00;0.00;;;20.10;80.40;;;;;;4973475;28;20058;-70